createdAt,value
2023-05-22T00:00:52.784Z,100709.00
2023-05-22T00:02:24.813Z,100711.60
2023-05-22T00:03:57.100Z,100705.80
2023-05-22T00:05:30.440Z,100707.40
2023-05-22T00:07:02.307Z,100712.00
2023-05-22T00:08:34.059Z,100708.00
2023-05-22T00:10:07.200Z,100706.20
2023-05-22T00:11:39.538Z,100709.80
2023-05-22T00:13:11.444Z,100709.60
2023-05-22T00:14:43.369Z,100703.80
2023-05-22T00:16:15.503Z,100700.80
2023-05-22T00:17:47.678Z,100696.60
2023-05-22T00:19:23.200Z,100697.40
2023-05-22T00:20:55.356Z,100691.40
2023-05-22T00:22:28.315Z,100689.80
2023-05-22T00:24:04.172Z,100685.80
2023-05-22T00:25:37.400Z,100689.60
2023-05-22T00:27:09.142Z,100688.40
2023-05-22T00:28:40.906Z,100681.80
2023-05-22T00:30:14.279Z,100683.20
2023-05-22T00:31:46.200Z,100681.00
2023-05-22T00:33:18.208Z,100676.20
2023-05-22T00:34:50.681Z,100674.40
2023-05-22T00:36:22.476Z,100677.40
2023-05-22T00:37:54.577Z,100671.60
2023-05-22T00:39:26.290Z,100673.20
2023-05-22T00:41:00.379Z,100676.60
2023-05-22T00:42:32.092Z,100677.80
2023-05-22T00:44:04.031Z,100678.00
2023-05-22T00:45:35.925Z,100677.20
2023-05-22T00:47:08.125Z,100676.40
2023-05-22T00:48:40.005Z,100672.80
2023-05-22T00:50:12.770Z,100672.20
2023-05-22T00:51:45.094Z,100670.20
2023-05-22T00:53:19.126Z,100670.80
2023-05-22T00:54:53.974Z,100671.40
2023-05-22T00:56:27.040Z,100671.60
2023-05-22T00:57:59.057Z,100668.40
2023-05-22T00:59:31.472Z,100672.60
2023-05-22T01:01:03.488Z,100669.20
2023-05-22T01:02:37.119Z,100665.80
2023-05-22T01:04:14.708Z,100663.60
2023-05-22T01:05:46.534Z,100665.20
2023-05-22T01:07:18.771Z,100665.40
2023-05-22T01:08:50.694Z,100666.40
2023-05-22T01:10:23.183Z,100664.60
2023-05-22T01:12:21.419Z,100665.40
2023-05-22T01:14:22.233Z,100662.40
2023-05-22T01:16:35.141Z,100662.80
2023-05-22T01:18:25.113Z,100663.80
2023-05-22T01:20:07.592Z,100658.20
2023-05-22T01:22:07.697Z,100658.80
2023-05-22T01:24:25.632Z,100661.20
2023-05-22T01:26:33.996Z,100658.60
2023-05-22T01:28:32.372Z,100658.20
2023-05-22T01:30:19.672Z,100658.20
2023-05-22T01:31:55.589Z,100660.00
2023-05-22T01:33:36.025Z,100658.60
2023-05-22T01:35:12.170Z,100657.20
2023-05-22T01:36:48.634Z,100660.00
2023-05-22T01:38:21.672Z,100659.40
2023-05-22T01:39:55.912Z,100658.80
2023-05-22T01:41:29.778Z,100657.80
2023-05-22T01:43:02.024Z,100663.40
2023-05-22T01:44:33.858Z,100658.80
2023-05-22T01:46:06.490Z,100659.60
2023-05-22T01:47:38.346Z,100659.80
2023-05-22T01:49:10.436Z,100662.00
2023-05-22T01:50:42.841Z,100663.60
2023-05-22T01:52:22.597Z,100661.40
2023-05-22T01:54:39.875Z,100657.60
2023-05-22T01:56:39.424Z,100658.00
2023-05-22T01:58:44.444Z,100660.60
2023-05-22T02:00:21.431Z,100658.20
2023-05-22T02:01:55.559Z,100656.00
2023-05-22T02:03:36.433Z,100653.40
2023-05-22T02:05:12.445Z,100654.80
2023-05-22T02:06:44.706Z,100654.00
2023-05-22T02:08:17.468Z,100649.60
2023-05-22T02:09:52.464Z,100655.40
2023-05-22T02:11:28.466Z,100655.00
2023-05-22T02:13:00.622Z,100653.20
2023-05-22T02:14:32.426Z,100652.40
2023-05-22T02:16:07.239Z,100651.60
2023-05-22T02:17:42.986Z,100652.00
2023-05-22T02:19:15.483Z,100652.80
2023-05-22T02:20:47.349Z,100651.40
2023-05-22T02:22:19.205Z,100653.80
2023-05-22T02:23:51.142Z,100652.20
2023-05-22T02:25:23.227Z,100650.80
2023-05-22T02:26:55.199Z,100651.40
2023-05-22T02:28:27.445Z,100650.40
2023-05-22T02:29:59.172Z,100653.40
2023-05-22T02:31:30.942Z,100652.60
2023-05-22T02:33:05.904Z,100646.80
2023-05-22T02:34:38.003Z,100650.20
2023-05-22T02:36:10.861Z,100647.20
2023-05-22T02:37:42.700Z,100638.20
2023-05-22T02:39:14.470Z,100638.20
2023-05-22T02:40:47.113Z,100633.40
2023-05-22T02:42:19.616Z,100631.60
2023-05-22T02:43:51.491Z,100633.20
2023-05-22T02:45:23.292Z,100630.20
2023-05-22T02:46:55.944Z,100625.20
2023-05-22T02:48:29.233Z,100620.40
2023-05-22T02:50:01.032Z,100621.00
2023-05-22T02:51:33.648Z,100616.40
2023-05-22T02:53:05.579Z,100613.40
2023-05-22T02:54:37.370Z,100610.40
2023-05-22T02:56:13.295Z,100609.60
2023-05-22T02:57:45.013Z,100611.20
2023-05-22T02:59:16.732Z,100608.40
2023-05-22T03:00:48.513Z,100607.40
2023-05-22T03:02:21.100Z,100600.80
2023-05-22T03:03:54.947Z,100595.40
2023-05-22T03:05:27.041Z,100595.00
2023-05-22T03:06:59.101Z,100595.40
2023-05-22T03:08:31.776Z,100592.00
2023-05-22T03:10:03.769Z,100588.60
2023-05-22T03:11:35.467Z,100590.80
2023-05-22T03:13:07.269Z,100592.20
2023-05-22T03:14:39.066Z,100594.60
2023-05-22T03:16:10.887Z,100593.60
2023-05-22T03:17:45.405Z,100595.20
2023-05-22T03:19:17.749Z,100594.00
2023-05-22T03:20:49.754Z,100596.20
2023-05-22T03:22:21.640Z,100595.80
2023-05-22T03:23:53.321Z,100592.80
2023-05-22T03:25:25.112Z,100595.00
2023-05-22T03:26:56.945Z,100591.00
2023-05-22T03:28:36.579Z,100596.20
2023-05-22T03:30:09.547Z,100594.20
2023-05-22T03:31:41.903Z,100591.40
2023-05-22T03:33:16.057Z,100593.60
2023-05-22T03:34:47.979Z,100595.60
2023-05-22T03:36:24.136Z,100592.40
2023-05-22T03:37:56.018Z,100597.60
2023-05-22T03:39:28.413Z,100595.00
2023-05-22T03:41:11.280Z,100595.80
2023-05-22T03:42:43.056Z,100592.80
2023-05-22T03:44:14.890Z,100590.20
2023-05-22T03:45:47.921Z,100588.60
2023-05-22T03:47:19.663Z,100590.00
2023-05-22T03:48:53.703Z,100588.80
2023-05-22T03:50:25.454Z,100591.40
2023-05-22T03:51:57.261Z,100586.60
2023-05-22T03:53:29.468Z,100591.80
2023-05-22T03:55:01.872Z,100588.00
2023-05-22T03:56:33.625Z,100587.60
2023-05-22T03:58:05.446Z,100588.40
2023-05-22T03:59:37.280Z,100587.80
2023-05-22T04:01:10.146Z,100584.20
2023-05-22T04:02:44.776Z,100578.80
2023-05-22T04:04:17.189Z,100581.80
2023-05-22T04:05:48.971Z,100583.00
2023-05-22T04:07:20.674Z,100585.40
2023-05-22T04:08:52.513Z,100587.20
2023-05-22T04:10:24.302Z,100587.20
2023-05-22T04:11:56.144Z,100585.60
2023-05-22T04:13:28.171Z,100582.00
2023-05-22T04:14:59.976Z,100587.80
2023-05-22T04:16:33.516Z,100589.60
2023-05-22T04:18:05.325Z,100593.00
2023-05-22T04:19:37.145Z,100589.40
2023-05-22T04:21:09.909Z,100589.40
2023-05-22T04:22:41.881Z,100592.80
2023-05-22T04:24:14.488Z,100587.40
2023-05-22T04:25:48.009Z,100589.60
2023-05-22T04:27:22.718Z,100592.20
2023-05-22T04:28:54.830Z,100593.80
2023-05-22T04:30:26.611Z,100595.80
2023-05-22T04:32:00.231Z,100595.60
2023-05-22T04:33:34.441Z,100595.60
2023-05-22T04:35:06.545Z,100591.00
2023-05-22T04:36:38.927Z,100594.60
2023-05-22T04:38:10.961Z,100596.60
2023-05-22T04:39:42.661Z,100593.20
2023-05-22T04:41:17.907Z,100593.40
2023-05-22T04:42:50.266Z,100595.60
2023-05-22T04:44:22.994Z,100591.00
2023-05-22T04:45:58.131Z,100595.40
2023-05-22T04:47:31.647Z,100589.80
2023-05-22T04:49:04.640Z,100593.20
2023-05-22T04:50:38.679Z,100590.80
2023-05-22T04:52:11.634Z,100586.80
2023-05-22T04:53:43.434Z,100591.00
2023-05-22T04:55:15.489Z,100589.80
2023-05-22T04:56:47.237Z,100589.80
2023-05-22T04:58:18.972Z,100591.40
2023-05-22T04:59:51.385Z,100586.00
2023-05-22T05:01:23.729Z,100591.40
2023-05-22T05:02:57.333Z,100582.80
2023-05-22T05:04:29.484Z,100587.40
2023-05-22T05:06:01.450Z,100589.20
2023-05-22T05:07:38.719Z,100583.00
2023-05-22T05:09:11.076Z,100589.40
2023-05-22T05:10:42.833Z,100585.40
2023-05-22T05:12:17.163Z,100587.00
2023-05-22T05:13:48.946Z,100590.80
2023-05-22T05:15:22.808Z,100594.40
2023-05-22T05:16:55.134Z,100593.20
2023-05-22T05:18:28.157Z,100596.00
2023-05-22T05:20:00.410Z,100594.60
2023-05-22T05:21:32.227Z,100595.20
2023-05-22T05:23:05.770Z,100596.80
2023-05-22T05:24:38.839Z,100600.60
2023-05-22T05:26:10.622Z,100599.60
2023-05-22T05:27:42.578Z,100599.20
2023-05-22T05:29:14.452Z,100602.80
2023-05-22T05:30:52.889Z,100599.00
2023-05-22T05:32:45.026Z,100603.60
2023-05-22T05:34:39.781Z,100610.20
2023-05-22T05:36:25.072Z,100610.80
2023-05-22T05:37:56.995Z,100608.80
2023-05-22T05:39:29.690Z,100611.20
2023-05-22T05:41:02.387Z,100607.20
2023-05-22T05:42:34.509Z,100612.00
2023-05-22T05:44:07.872Z,100612.60
2023-05-22T05:45:39.865Z,100616.00
2023-05-22T05:47:11.933Z,100614.20
2023-05-22T05:48:43.989Z,100617.00
2023-05-22T05:50:16.161Z,100613.00
2023-05-22T05:51:48.191Z,100616.40
2023-05-22T05:53:21.037Z,100618.60
2023-05-22T05:54:57.984Z,100618.20
2023-05-22T05:56:29.906Z,100622.80
2023-05-22T05:58:01.853Z,100621.80
2023-05-22T05:59:44.022Z,100620.20
2023-05-22T06:01:35.553Z,100624.00
2023-05-22T06:03:08.460Z,100619.20
2023-05-22T06:05:05.633Z,100622.40
2023-05-22T06:06:39.452Z,100625.60
2023-05-22T06:08:14.270Z,100625.40
2023-05-22T06:09:47.067Z,100629.80
2023-05-22T06:11:22.451Z,100628.80
2023-05-22T06:12:58.332Z,100624.00
2023-05-22T06:14:30.671Z,100624.00
2023-05-22T06:16:05.722Z,100626.20
2023-05-22T06:17:39.033Z,100622.20
2023-05-22T06:19:10.924Z,100619.00
2023-05-22T06:20:43.231Z,100621.00
2023-05-22T06:22:15.240Z,100618.40
2023-05-22T06:23:49.806Z,100621.00
2023-05-22T06:25:21.717Z,100619.60
2023-05-22T06:26:53.651Z,100621.40
2023-05-22T06:28:25.652Z,100621.40
2023-05-22T06:29:57.609Z,100624.20
2023-05-22T06:31:35.282Z,100623.00
2023-05-22T06:33:07.978Z,100625.40
2023-05-22T06:34:40.374Z,100624.80
2023-05-22T06:36:12.869Z,100625.60
2023-05-22T06:37:44.768Z,100623.40
2023-05-22T06:39:18.623Z,100627.00
2023-05-22T06:41:13.041Z,100626.80
2023-05-22T06:42:44.926Z,100625.00
2023-05-22T06:44:33.548Z,100630.60
2023-05-22T06:46:07.704Z,100629.60
2023-05-22T06:47:46.105Z,100633.80
2023-05-22T06:49:19.356Z,100632.40
2023-05-22T06:50:53.492Z,100635.40
2023-05-22T06:52:25.394Z,100633.60
2023-05-22T06:53:57.392Z,100638.40
2023-05-22T06:55:32.936Z,100638.40
2023-05-22T06:57:11.128Z,100640.60
2023-05-22T06:58:42.932Z,100635.20
2023-05-22T07:00:16.513Z,100634.40
2023-05-22T07:02:06.637Z,100636.80
2023-05-22T07:04:01.943Z,100640.00
2023-05-22T07:05:39.217Z,100642.40
2023-05-22T07:07:11.540Z,100643.80
2023-05-22T07:08:44.967Z,100647.60
2023-05-22T07:10:16.841Z,100645.40
2023-05-22T07:11:49.102Z,100647.60
2023-05-22T07:13:21.610Z,100646.20
2023-05-22T07:14:54.030Z,100645.20
2023-05-22T07:16:26.665Z,100645.00
2023-05-22T07:17:58.816Z,100646.20
2023-05-22T07:19:31.219Z,100647.40
2023-05-22T07:21:06.145Z,100649.20
2023-05-22T07:22:38.619Z,100649.80
2023-05-22T07:24:10.588Z,100651.40
2023-05-22T07:25:44.820Z,100651.60
2023-05-22T07:27:17.287Z,100653.80
2023-05-22T07:28:50.534Z,100653.40
2023-05-22T07:30:22.569Z,100651.00
2023-05-22T07:31:54.486Z,100656.40
2023-05-22T07:33:27.880Z,100658.20
2023-05-22T07:35:00.005Z,100655.60
2023-05-22T07:36:31.989Z,100658.00
2023-05-22T07:38:04.070Z,100659.20
2023-05-22T07:39:36.194Z,100654.60
2023-05-22T07:41:09.103Z,100655.20
2023-05-22T07:42:41.693Z,100656.00
2023-05-22T07:44:14.426Z,100657.20
2023-05-22T07:45:46.424Z,100658.20
2023-05-22T07:47:19.461Z,100659.00
2023-05-22T07:48:51.353Z,100657.20
2023-05-22T07:50:23.175Z,100655.20
2023-05-22T07:51:55.107Z,100658.80
2023-05-22T07:53:28.603Z,100656.20
2023-05-22T07:55:01.783Z,100657.00
2023-05-22T07:56:34.354Z,100652.20
2023-05-22T07:58:06.329Z,100651.20
2023-05-22T07:59:43.665Z,100654.60
2023-05-22T08:01:18.304Z,100656.80
2023-05-22T08:02:50.215Z,100653.20
2023-05-22T08:04:22.077Z,100656.20
2023-05-22T08:05:54.276Z,100651.20
2023-05-22T08:07:26.083Z,100656.80
2023-05-22T08:08:58.011Z,100657.20
2023-05-22T08:10:37.202Z,100659.20
2023-05-22T08:12:18.697Z,100657.60
2023-05-22T08:13:50.524Z,100658.80
2023-05-22T08:15:22.307Z,100655.80
2023-05-22T08:16:54.115Z,100652.20
2023-05-22T08:18:28.045Z,100657.60
2023-05-22T08:19:59.907Z,100660.40
2023-05-22T08:21:34.598Z,100658.60
2023-05-22T08:23:06.405Z,100657.00
2023-05-22T08:24:38.193Z,100657.60
2023-05-22T08:26:09.906Z,100660.80
2023-05-22T08:27:41.668Z,100659.40
2023-05-22T08:29:13.562Z,100660.00
2023-05-22T08:30:45.622Z,100658.40
2023-05-22T08:32:17.532Z,100659.20
2023-05-22T08:33:49.230Z,100660.00
2023-05-22T08:35:21.055Z,100661.00
2023-05-22T08:36:52.838Z,100659.20
2023-05-22T08:38:24.708Z,100660.00
2023-05-22T08:39:56.647Z,100663.20
2023-05-22T08:41:29.600Z,100660.80
2023-05-22T08:43:01.860Z,100659.60
2023-05-22T08:44:33.807Z,100660.60
2023-05-22T08:46:09.140Z,100663.40
2023-05-22T08:47:44.200Z,100662.20
2023-05-22T08:49:18.317Z,100662.00
2023-05-22T08:50:59.865Z,100663.00
2023-05-22T08:52:46.950Z,100665.60
2023-05-22T08:54:23.324Z,100663.40
2023-05-22T08:55:55.463Z,100664.00
2023-05-22T08:57:27.330Z,100662.40
2023-05-22T08:59:01.531Z,100668.00
2023-05-22T09:00:34.003Z,100666.20
2023-05-22T09:02:07.108Z,100666.60
2023-05-22T09:03:39.338Z,100664.80
2023-05-22T09:05:12.345Z,100665.80
2023-05-22T09:06:47.417Z,100663.20
2023-05-22T09:08:21.165Z,100660.20
2023-05-22T09:09:53.321Z,100665.60
2023-05-22T09:11:26.277Z,100667.80
2023-05-22T09:13:03.882Z,100666.80
2023-05-22T09:14:42.762Z,100660.40
2023-05-22T09:16:15.275Z,100659.20
2023-05-22T09:17:47.162Z,100660.60
2023-05-22T09:19:19.148Z,100656.20
2023-05-22T09:20:51.021Z,100658.40
2023-05-22T09:22:24.318Z,100656.60
2023-05-22T09:24:01.295Z,100657.60
2023-05-22T09:25:33.261Z,100657.80
2023-05-22T09:27:08.219Z,100655.60
2023-05-22T09:28:40.411Z,100655.00
2023-05-22T09:30:17.538Z,100657.40
2023-05-22T09:31:49.527Z,100658.80
2023-05-22T09:33:24.264Z,100659.20
2023-05-22T09:35:04.424Z,100659.40
2023-05-22T09:36:36.808Z,100662.60
2023-05-22T09:38:10.222Z,100660.40
2023-05-22T09:39:46.189Z,100658.60
2023-05-22T09:41:22.473Z,100662.80
2023-05-22T09:42:54.293Z,100659.00
2023-05-22T09:44:26.931Z,100661.80
2023-05-22T09:46:04.330Z,100656.80
2023-05-22T09:47:36.359Z,100656.60
2023-05-22T09:49:08.285Z,100659.00
2023-05-22T09:50:40.354Z,100655.60
2023-05-22T09:52:12.967Z,100661.40
2023-05-22T09:53:47.634Z,100662.20
2023-05-22T09:55:22.939Z,100664.60
2023-05-22T09:56:59.337Z,100663.60
2023-05-22T09:58:34.898Z,100664.20
2023-05-22T10:00:15.539Z,100658.80
2023-05-22T10:01:49.687Z,100658.80
2023-05-22T10:03:24.763Z,100661.40
2023-05-22T10:04:57.857Z,100664.80
2023-05-22T10:06:33.917Z,100661.60
2023-05-22T10:08:11.971Z,100662.20
2023-05-22T10:09:51.398Z,100660.00
2023-05-22T10:11:25.465Z,100660.40
2023-05-22T10:13:04.168Z,100661.60
2023-05-22T10:14:36.683Z,100667.80
2023-05-22T10:16:12.038Z,100664.60
2023-05-22T10:17:44.544Z,100678.80
2023-05-22T10:19:17.717Z,100679.60
2023-05-22T10:20:50.377Z,100677.80
2023-05-22T10:22:25.889Z,100674.20
2023-05-22T10:24:01.114Z,100676.00
2023-05-22T10:25:35.574Z,100667.80
2023-05-22T10:27:07.478Z,100665.20
2023-05-22T10:28:47.998Z,100667.20
2023-05-22T10:30:53.257Z,100661.20
2023-05-22T10:32:51.155Z,100665.40
2023-05-22T10:34:40.277Z,100660.80
2023-05-22T10:36:34.992Z,100667.40
2023-05-22T10:38:33.989Z,100670.20
2023-05-22T10:40:10.674Z,100668.20
2023-05-22T10:41:42.561Z,100666.80
2023-05-22T10:43:14.506Z,100665.20
2023-05-22T10:44:48.872Z,100665.00
2023-05-22T10:46:20.781Z,100659.60
2023-05-22T10:48:11.757Z,100658.00
2023-05-22T10:49:45.479Z,100656.80
2023-05-22T10:51:22.185Z,100656.40
2023-05-22T10:53:22.356Z,100653.20
2023-05-22T10:54:54.770Z,100650.80
2023-05-22T10:56:35.448Z,100652.60
2023-05-22T10:58:13.710Z,100658.40
2023-05-22T10:59:48.634Z,100656.60
2023-05-22T11:01:22.607Z,100659.20
2023-05-22T11:03:17.370Z,100656.60
2023-05-22T11:04:50.769Z,100649.40
2023-05-22T11:06:49.212Z,100650.40
2023-05-22T11:08:27.052Z,100657.20
2023-05-22T11:10:01.476Z,100658.80
2023-05-22T11:11:33.264Z,100656.40
2023-05-22T11:13:14.177Z,100656.00
2023-05-22T11:15:09.140Z,100657.80
2023-05-22T11:16:41.226Z,100653.00
2023-05-22T11:18:14.580Z,100651.60
2023-05-22T11:20:00.845Z,100648.40
2023-05-22T11:21:46.050Z,100649.80
2023-05-22T11:23:20.100Z,100651.20
2023-05-22T11:24:51.999Z,100652.60
2023-05-22T11:26:26.383Z,100652.20
2023-05-22T11:28:04.525Z,100653.40
2023-05-22T11:29:38.453Z,100653.40
2023-05-22T11:31:10.629Z,100646.00
2023-05-22T11:32:45.593Z,100647.60
2023-05-22T11:34:17.561Z,100637.80
2023-05-22T11:35:53.092Z,100640.60
2023-05-22T11:37:24.888Z,100632.40
2023-05-22T11:39:00.180Z,100641.20
2023-05-22T11:40:32.090Z,100644.20
2023-05-22T11:42:05.253Z,100640.00
2023-05-22T11:43:37.768Z,100638.80
2023-05-22T11:45:10.809Z,100645.40
2023-05-22T11:46:42.800Z,100646.00
2023-05-22T11:48:20.758Z,100644.20
2023-05-22T11:49:54.200Z,100636.60
2023-05-22T11:51:28.432Z,100635.00
2023-05-22T11:53:00.322Z,100641.40
2023-05-22T11:54:32.721Z,100644.00
2023-05-22T11:56:06.841Z,100629.40
2023-05-22T11:57:38.971Z,100635.20
2023-05-22T11:59:10.882Z,100633.40
2023-05-22T12:00:43.402Z,100628.20
2023-05-22T12:02:19.727Z,100624.40
2023-05-22T12:03:51.665Z,100633.60
2023-05-22T12:05:23.523Z,100633.80
2023-05-22T12:06:56.132Z,100637.20
2023-05-22T12:08:28.613Z,100628.80
2023-05-22T12:10:01.296Z,100622.20
2023-05-22T12:11:36.505Z,100626.80
2023-05-22T12:13:08.362Z,100626.40
2023-05-22T12:14:45.587Z,100631.60
2023-05-22T12:16:21.808Z,100633.80
2023-05-22T12:17:56.721Z,100621.00
2023-05-22T12:19:28.918Z,100618.80
2023-05-22T12:21:00.934Z,100630.00
2023-05-22T12:22:32.852Z,100620.20
2023-05-22T12:24:06.344Z,100622.60
2023-05-22T12:25:38.109Z,100622.00
2023-05-22T12:27:11.145Z,100623.40
2023-05-22T12:28:43.964Z,100618.60
2023-05-22T12:30:16.971Z,100621.20
2023-05-22T12:31:49.261Z,100616.20
2023-05-22T12:33:26.848Z,100619.20
2023-05-22T12:34:59.911Z,100620.60
2023-05-22T12:36:38.245Z,100624.40
2023-05-22T12:38:10.968Z,100617.00
2023-05-22T12:39:57.012Z,100620.80
2023-05-22T12:41:28.780Z,100618.00
2023-05-22T12:43:00.892Z,100622.60
2023-05-22T12:44:32.729Z,100621.60
2023-05-22T12:46:04.677Z,100614.00
2023-05-22T12:47:36.439Z,100621.00
2023-05-22T12:49:08.758Z,100622.00
2023-05-22T12:50:41.157Z,100620.40
2023-05-22T12:52:13.403Z,100614.20
2023-05-22T12:53:45.229Z,100617.00
2023-05-22T12:55:16.991Z,100625.40
2023-05-22T12:56:48.758Z,100616.20
2023-05-22T12:58:20.474Z,100619.60
2023-05-22T12:59:52.284Z,100635.00
2023-05-22T13:01:24.690Z,100633.60
2023-05-22T13:02:56.958Z,100631.40
2023-05-22T13:04:29.721Z,100624.40
2023-05-22T13:06:01.588Z,100618.40
2023-05-22T13:07:33.402Z,100621.20
2023-05-22T13:09:05.125Z,100621.80
2023-05-22T13:10:38.124Z,100627.80
2023-05-22T13:12:11.235Z,100626.80
2023-05-22T13:13:43.225Z,100627.80
2023-05-22T13:15:16.016Z,100627.80
2023-05-22T13:16:47.728Z,100626.40
2023-05-22T13:18:19.798Z,100623.40
2023-05-22T13:19:52.257Z,100633.60
2023-05-22T13:21:26.353Z,100631.80
2023-05-22T13:22:58.377Z,100631.00
2023-05-22T13:24:30.223Z,100631.80
2023-05-22T13:26:03.101Z,100627.20
2023-05-22T13:27:34.915Z,100628.60
2023-05-22T13:29:06.714Z,100625.00
2023-05-22T13:30:38.738Z,100613.20
2023-05-22T13:32:13.714Z,100615.20
2023-05-22T13:33:46.117Z,100611.20
2023-05-22T13:35:18.792Z,100614.40
2023-05-22T13:36:50.731Z,100615.00
2023-05-22T13:38:22.462Z,100616.00
2023-05-22T13:39:54.309Z,100611.20
2023-05-22T13:41:26.391Z,100618.20
2023-05-22T13:42:58.352Z,100615.80
2023-05-22T13:44:30.143Z,100614.00
2023-05-22T13:46:01.962Z,100612.20
2023-05-22T13:47:34.848Z,100612.20
2023-05-22T13:49:06.694Z,100598.80
2023-05-22T13:50:38.484Z,100598.60
2023-05-22T13:52:10.434Z,100594.00
2023-05-22T13:53:42.199Z,100595.40
2023-05-22T13:55:14.039Z,100608.40
2023-05-22T13:56:45.940Z,100607.20
2023-05-22T13:58:17.724Z,100594.00
2023-05-22T13:59:49.510Z,100594.80
2023-05-22T14:01:21.345Z,100598.00
2023-05-22T14:02:53.386Z,100604.40
2023-05-22T14:04:25.546Z,100606.00
2023-05-22T14:05:57.315Z,100609.20
2023-05-22T14:07:29.097Z,100608.60
2023-05-22T14:09:00.924Z,100605.80
2023-05-22T14:10:34.318Z,100606.60
2023-05-22T14:12:06.676Z,100607.80
2023-05-22T14:13:38.474Z,100596.00
2023-05-22T14:15:10.739Z,100594.60
2023-05-22T14:16:42.647Z,100592.20
2023-05-22T14:18:16.473Z,100592.00
2023-05-22T14:19:48.592Z,100604.00
2023-05-22T14:21:20.460Z,100600.20
2023-05-22T14:22:57.589Z,100601.80
2023-05-22T14:24:30.173Z,100602.60
2023-05-22T14:26:01.967Z,100607.00
2023-05-22T14:27:33.776Z,100606.80
2023-05-22T14:29:05.687Z,100609.80
2023-05-22T14:30:37.555Z,100610.40
2023-05-22T14:32:09.493Z,100609.00
2023-05-22T14:33:41.271Z,100611.00
2023-05-22T14:35:13.144Z,100608.00
2023-05-22T14:36:44.934Z,100613.40
2023-05-22T14:38:16.667Z,100612.20
2023-05-22T14:39:48.391Z,100616.00
2023-05-22T14:41:20.128Z,100616.20
2023-05-22T14:42:53.983Z,100618.80
2023-05-22T14:44:26.172Z,100614.00
2023-05-22T14:45:59.112Z,100615.40
2023-05-22T14:47:31.017Z,100607.00
2023-05-22T14:49:02.790Z,100608.00
2023-05-22T14:50:34.616Z,100608.80
2023-05-22T14:52:06.484Z,100607.40
2023-05-22T14:53:38.270Z,100604.80
2023-05-22T14:55:10.053Z,100603.80
2023-05-22T14:56:41.806Z,100601.80
2023-05-22T14:58:14.815Z,100600.00
2023-05-22T14:59:46.601Z,100597.40
2023-05-22T15:01:18.399Z,100594.00
2023-05-22T15:02:50.498Z,100593.00
2023-05-22T15:04:22.738Z,100586.00
2023-05-22T15:05:54.519Z,100577.60
2023-05-22T15:07:35.884Z,100568.20
2023-05-22T15:09:14.694Z,100560.80
2023-05-22T15:10:46.617Z,100568.20
2023-05-22T15:12:18.971Z,100575.20
2023-05-22T15:13:51.642Z,100575.20
2023-05-22T15:15:23.686Z,100574.60
2023-05-22T15:16:55.516Z,100572.00
2023-05-22T15:18:27.501Z,100574.00
2023-05-22T15:19:59.529Z,100572.40
2023-05-22T15:21:31.392Z,100567.00
2023-05-22T15:23:03.484Z,100561.20
2023-05-22T15:24:35.610Z,100555.40
2023-05-22T15:26:07.508Z,100549.80
2023-05-22T15:27:39.819Z,100554.80
2023-05-22T15:29:11.915Z,100550.20
2023-05-22T15:30:43.783Z,100556.20
2023-05-22T15:32:15.674Z,100553.80
2023-05-22T15:33:47.573Z,100551.40
2023-05-22T15:35:19.531Z,100551.00
2023-05-22T15:36:51.399Z,100546.40
2023-05-22T15:38:23.212Z,100558.80
2023-05-22T15:39:54.986Z,100563.00
2023-05-22T15:41:26.836Z,100559.20
2023-05-22T15:43:01.771Z,100557.40
2023-05-22T15:44:33.815Z,100545.00
2023-05-22T15:46:05.941Z,100547.80
2023-05-22T15:47:37.825Z,100545.60
2023-05-22T15:49:10.218Z,100548.60
2023-05-22T15:50:42.765Z,100560.40
2023-05-22T15:52:16.089Z,100560.20
2023-05-22T15:53:47.930Z,100562.00
2023-05-22T15:55:19.870Z,100566.00
2023-05-22T15:56:51.739Z,100566.40
2023-05-22T15:58:23.490Z,100570.00
2023-05-22T15:59:55.738Z,100566.20
2023-05-22T16:01:29.438Z,100580.20
2023-05-22T16:03:01.337Z,100582.80
2023-05-22T16:04:33.160Z,100577.80
2023-05-22T16:06:05.100Z,100577.60
2023-05-22T16:07:36.936Z,100568.00
2023-05-22T16:09:09.946Z,100579.00
2023-05-22T16:10:44.449Z,100565.60
2023-05-22T16:12:16.832Z,100567.20
2023-05-22T16:13:48.648Z,100571.40
2023-05-22T16:15:20.572Z,100570.40
2023-05-22T16:16:52.465Z,100568.00
2023-05-22T16:18:24.187Z,100573.00
2023-05-22T16:19:56.064Z,100584.40
2023-05-22T16:21:27.901Z,100583.40
2023-05-22T16:22:59.680Z,100588.20
2023-05-22T16:24:31.680Z,100595.20
2023-05-22T16:26:03.642Z,100597.60
2023-05-22T16:27:35.781Z,100605.00
2023-05-22T16:29:10.949Z,100605.40
2023-05-22T16:30:43.131Z,100600.40
2023-05-22T16:32:14.893Z,100598.20
2023-05-22T16:33:46.725Z,100593.80
2023-05-22T16:35:19.743Z,100598.40
2023-05-22T16:36:51.681Z,100605.20
2023-05-22T16:38:23.541Z,100623.00
2023-05-22T16:39:55.391Z,100642.20
2023-05-22T16:41:27.587Z,100684.40
2023-05-22T16:42:59.384Z,100705.60
2023-05-22T16:44:31.126Z,100711.40
2023-05-22T16:46:02.898Z,100700.00
2023-05-22T16:47:34.837Z,100682.60
2023-05-22T16:49:06.875Z,100668.60
2023-05-22T16:50:38.918Z,100676.60
2023-05-22T16:52:10.787Z,100662.40
2023-05-22T16:53:42.522Z,100668.60
2023-05-22T16:55:14.518Z,100677.60
2023-05-22T16:56:46.256Z,100675.40
2023-05-22T16:58:18.159Z,100674.00
2023-05-22T16:59:50.025Z,100676.80
2023-05-22T17:01:22.078Z,100674.20
2023-05-22T17:02:55.797Z,100676.80
2023-05-22T17:04:27.711Z,100680.00
2023-05-22T17:06:00.130Z,100685.60
2023-05-22T17:07:31.869Z,100688.80
2023-05-22T17:09:03.902Z,100688.40
2023-05-22T17:10:35.725Z,100687.80
2023-05-22T17:12:07.702Z,100690.60
2023-05-22T17:13:39.463Z,100685.00
2023-05-22T17:15:12.167Z,100684.60
2023-05-22T17:16:44.135Z,100689.80
2023-05-22T17:18:22.296Z,100688.40
2023-05-22T17:19:54.092Z,100688.00
2023-05-22T17:21:25.876Z,100688.40
2023-05-22T17:22:57.699Z,100681.80
2023-05-22T17:24:30.052Z,100687.40
2023-05-22T17:26:02.102Z,100687.60
2023-05-22T17:27:36.417Z,100677.00
2023-05-22T17:29:09.424Z,100678.00
2023-05-22T17:30:43.205Z,100677.20
2023-05-22T17:32:15.218Z,100669.80
2023-05-22T17:33:47.022Z,100666.40
2023-05-22T17:35:18.868Z,100663.40
2023-05-22T17:36:50.737Z,100665.60
2023-05-22T17:38:22.717Z,100672.80
2023-05-22T17:39:54.555Z,100674.20
2023-05-22T17:41:26.505Z,100678.00
2023-05-22T17:43:00.323Z,100678.00
2023-05-22T17:44:32.678Z,100680.00
2023-05-22T17:46:05.651Z,100690.00
2023-05-22T17:47:37.522Z,100689.40
2023-05-22T17:49:09.365Z,100689.80
2023-05-22T17:50:41.528Z,100691.80
2023-05-22T17:52:14.366Z,100697.60
2023-05-22T17:53:46.164Z,100695.00
2023-05-22T17:55:29.822Z,100704.20